Huvudsida
METAR-TAF:

METAR-TAF

Flygplatser :

Caracas, Venezuela

latitud: 10-36N, longitud: 066-59W, höjd: 43 m

Aktuellt väderrapport

Denna rapport gjordes för 58 minuter sedan, klockan 11:00 UTC
Vind 1 kt från sydost
Temperatur 26°C
Fuktighet 79%
Tryck 1011 hPa
Sikt 10 km eller mer
Spridda moln på en höjd av 1600 ft

METAR: SVMI 241100Z 14001KT 9999 SCT016 26/22 Q1011

Tid: 07:58 (11:58 UTC)

Väderprognos

Denna rapport gjordes för 1 timme och 58 minuter sedan, klockan 10:00 UTC
Prognos gäller från 24 kl. 12 UTC till 25 kl. 12 UTC
Vind 9 kt från ost
Sikt 10 km eller mer
Få moln på en höjd av 1600 ft
Spridda moln på en höjd av 10000 ft
Blir
från 24 kl. 11 UTC till 24 kl. 15 UTC
Vind 11 kt från ost
Sikt 10 km eller mer
Spridda moln på en höjd av 1600 ft

TAF: SVMI 241000Z 2412/2512 09009KT 9999 FEW016 SCT100 TX33/17Z TN23/08Z BECMG 2411/2415 09011KT 9999 SCT016

Aktuella väderrapporter och prognoser från 4000 flygplatser (METAR- och TAF-rapporter).

De tillgängliga stationerna syns som gula och röda prickar på kartan.

För musen över prickarna för att se namnen på stationerna.

Klicka sedan för att få väderrapporter och prognoser.

För att ändra kartan: Klicka på de gröna knapparna med ett svart kors på för att zooma in; den gröna knappen med ett streck på för att zooma ut; eller på de gröna pilarna för angränsande kartor.


METAR-TAF: